createdAt,value
2023-03-16T00:00:57.896Z,4.32
2023-03-16T00:03:25.824Z,4.85
2023-03-16T00:05:54.988Z,4.85
2023-03-16T00:08:22.820Z,4.60
2023-03-16T00:10:54.205Z,4.05
2023-03-16T00:13:25.862Z,4.97
2023-03-16T00:15:55.180Z,4.50
2023-03-16T00:18:27.124Z,4.30
2023-03-16T00:20:56.883Z,3.85
2023-03-16T00:23:27.306Z,3.97
2023-03-16T00:25:55.734Z,3.83
2023-03-16T00:28:26.848Z,3.65
2023-03-16T00:30:58.844Z,3.45
2023-03-16T00:33:27.428Z,3.72
2023-03-16T00:36:02.528Z,4.05
2023-03-16T00:38:32.241Z,2.90
2023-03-16T00:41:00.117Z,3.88
2023-03-16T00:43:29.511Z,4.00
2023-03-16T00:46:06.612Z,3.92
2023-03-16T00:48:35.632Z,3.50
2023-03-16T00:51:04.331Z,2.83
2023-03-16T00:53:33.470Z,3.20
2023-03-16T00:56:04.329Z,3.05
2023-03-16T00:58:37.476Z,3.38
2023-03-16T01:01:06.928Z,2.97
2023-03-16T01:03:35.199Z,3.40
2023-03-16T01:06:06.116Z,2.50
2023-03-16T01:08:34.179Z,2.65
2023-03-16T01:11:05.026Z,2.53
2023-03-16T01:13:34.937Z,2.90
2023-03-16T01:16:04.009Z,3.15
2023-03-16T01:18:34.400Z,2.03
2023-03-16T01:21:03.568Z,2.85
2023-03-16T01:23:34.237Z,2.95
2023-03-16T01:26:02.325Z,3.15
2023-03-16T01:28:31.828Z,2.47
2023-03-16T01:33:31.887Z,2.45
2023-03-16T01:36:04.186Z,2.60
2023-03-16T01:38:41.201Z,2.53
2023-03-16T01:41:09.832Z,2.60
2023-03-16T01:43:39.765Z,2.70
2023-03-16T01:49:00.722Z,2.67
2023-03-16T01:51:34.351Z,3.25
2023-03-16T01:54:07.741Z,3.38
2023-03-16T01:56:41.757Z,2.85
2023-03-16T01:59:14.084Z,2.53
2023-03-16T02:01:42.562Z,2.60
2023-03-16T02:04:28.441Z,2.63
2023-03-16T02:12:01.303Z,2.55
2023-03-16T02:14:30.745Z,3.05
2023-03-16T02:16:58.911Z,2.63
2023-03-16T02:19:39.612Z,3.03
2023-03-16T02:22:09.858Z,3.35
2023-03-16T02:24:39.300Z,3.40
2023-03-16T02:27:10.409Z,3.72
2023-03-16T02:30:01.749Z,2.95
2023-03-16T02:32:36.350Z,3.30
2023-03-16T02:35:05.076Z,2.92
2023-03-16T02:37:34.394Z,2.97
2023-03-16T02:40:05.635Z,2.63
2023-03-16T02:42:34.541Z,2.38
2023-03-16T02:45:04.511Z,3.28
2023-03-16T02:47:39.952Z,2.40
2023-03-16T02:50:09.848Z,3.22
2023-03-16T02:52:39.221Z,2.70
2023-03-16T02:55:08.529Z,2.40
2023-03-16T02:57:36.473Z,2.93
2023-03-16T03:00:17.365Z,2.60
2023-03-16T03:02:47.323Z,2.85
2023-03-16T03:05:15.324Z,2.50
2023-03-16T03:07:43.239Z,2.20
2023-03-16T03:10:12.192Z,3.05
2023-03-16T03:12:40.135Z,2.35
2023-03-16T03:17:52.343Z,2.53
2023-03-16T03:20:21.602Z,2.97
2023-03-16T03:22:52.891Z,2.87
2023-03-16T03:25:22.043Z,2.70
2023-03-16T03:27:51.656Z,2.70
2023-03-16T03:30:24.644Z,3.42
2023-03-16T03:32:53.382Z,2.20
2023-03-16T03:35:23.339Z,2.35
2023-03-16T03:37:51.663Z,3.38
2023-03-16T03:40:21.572Z,2.72
2023-03-16T03:42:56.164Z,2.85
2023-03-16T03:45:26.744Z,2.70
2023-03-16T03:47:56.170Z,2.95
2023-03-16T03:50:24.588Z,2.53
2023-03-16T03:53:18.836Z,2.65
2023-03-16T03:56:07.759Z,3.15
2023-03-16T03:58:38.825Z,3.38
2023-03-16T04:01:08.308Z,3.30
2023-03-16T04:06:07.138Z,3.40
2023-03-16T04:08:35.753Z,3.33
2023-03-16T04:11:06.605Z,3.63
2023-03-16T04:13:35.166Z,3.25
2023-03-16T04:16:03.795Z,3.15
2023-03-16T04:18:40.459Z,3.13
2023-03-16T04:21:18.822Z,3.25
2023-03-16T04:23:49.108Z,2.60
2023-03-16T04:26:17.878Z,2.90
2023-03-16T04:28:48.417Z,3.50
2023-03-16T04:31:19.378Z,3.33
2023-03-16T04:33:49.954Z,4.22
2023-03-16T04:36:18.340Z,4.88
2023-03-16T04:38:46.621Z,4.45
2023-03-16T04:41:14.652Z,4.50
2023-03-16T04:43:54.507Z,3.67
2023-03-16T04:46:26.653Z,3.50
2023-03-16T04:51:29.403Z,4.57
2023-03-16T04:54:06.697Z,4.70
2023-03-16T04:56:37.002Z,4.28
2023-03-16T04:59:10.734Z,4.85
2023-03-16T05:02:02.697Z,6.00
2023-03-16T05:04:32.266Z,5.95
2023-03-16T05:07:01.148Z,5.45
2023-03-16T05:09:34.539Z,5.55
2023-03-16T05:12:02.561Z,6.03
2023-03-16T05:14:32.260Z,5.20
2023-03-16T05:17:18.520Z,5.15
2023-03-16T05:19:48.958Z,5.65
2023-03-16T05:22:18.347Z,5.10
2023-03-16T05:25:13.790Z,4.60
2023-03-16T05:27:42.787Z,4.55
2023-03-16T05:30:16.199Z,5.05
2023-03-16T05:32:45.384Z,5.05
2023-03-16T05:35:15.776Z,4.57
2023-03-16T05:37:44.575Z,4.90
2023-03-16T05:40:18.308Z,4.97
2023-03-16T05:42:57.004Z,5.18
2023-03-16T05:45:26.385Z,5.85
2023-03-16T05:48:06.373Z,4.97
2023-03-16T05:50:39.617Z,5.18
2023-03-16T05:53:08.832Z,5.63
2023-03-16T05:55:38.627Z,5.88
2023-03-16T05:58:09.524Z,5.45
2023-03-16T06:00:39.427Z,5.78
2023-03-16T06:03:21.490Z,5.97
2023-03-16T06:05:51.121Z,5.88
2023-03-16T06:08:27.333Z,6.35
2023-03-16T06:11:00.923Z,6.07
2023-03-16T06:13:28.773Z,6.07
2023-03-16T06:15:56.788Z,6.45
2023-03-16T06:18:25.112Z,6.40
2023-03-16T06:20:54.435Z,6.43
2023-03-16T06:23:23.065Z,6.78
2023-03-16T06:25:54.599Z,7.07
2023-03-16T06:28:25.118Z,6.45
2023-03-16T06:30:55.071Z,6.20
2023-03-16T06:33:24.885Z,5.20
2023-03-16T06:35:54.467Z,5.72
2023-03-16T06:38:31.122Z,6.00
2023-03-16T06:41:02.775Z,5.53
2023-03-16T06:43:33.483Z,4.38
2023-03-16T06:46:01.564Z,4.57
2023-03-16T06:48:29.748Z,4.25
2023-03-16T06:50:59.899Z,4.05
2023-03-16T06:53:30.211Z,3.85
2023-03-16T06:55:58.865Z,4.22
2023-03-16T06:58:28.777Z,4.55
2023-03-16T07:00:56.879Z,4.10
2023-03-16T07:03:24.820Z,4.55
2023-03-16T07:05:59.441Z,4.43
2023-03-16T07:08:27.534Z,4.13
2023-03-16T07:10:55.569Z,5.47
2023-03-16T07:13:23.764Z,4.15
2023-03-16T07:15:52.960Z,6.15
2023-03-16T07:18:22.497Z,3.85
2023-03-16T07:20:50.770Z,2.88
2023-03-16T07:23:20.140Z,4.20
2023-03-16T07:25:48.006Z,3.83
2023-03-16T07:28:19.052Z,3.75
2023-03-16T07:31:02.439Z,3.67
2023-03-16T07:33:33.787Z,3.17
2023-03-16T07:36:05.976Z,4.57
2023-03-16T07:38:40.038Z,3.65
2023-03-16T07:41:09.034Z,3.50
2023-03-16T07:43:37.149Z,2.90
2023-03-16T07:46:05.536Z,2.90
2023-03-16T07:48:33.532Z,3.10
2023-03-16T07:53:33.051Z,3.40
2023-03-16T07:56:16.858Z,3.33
2023-03-16T07:58:47.561Z,2.83
2023-03-16T08:01:15.846Z,2.67
2023-03-16T08:03:44.868Z,2.58
2023-03-16T08:06:13.116Z,2.80
2023-03-16T08:08:41.026Z,2.95
2023-03-16T08:11:11.740Z,3.70
2023-03-16T08:13:56.591Z,2.83
2023-03-16T08:16:28.018Z,3.95
2023-03-16T08:18:58.129Z,2.83
2023-03-16T08:21:26.174Z,3.65
2023-03-16T08:23:55.094Z,2.47
2023-03-16T08:26:24.827Z,2.97
2023-03-16T08:29:02.496Z,2.80
2023-03-16T08:31:35.072Z,2.50
2023-03-16T08:34:16.123Z,2.33
2023-03-16T08:36:45.614Z,2.70
2023-03-16T08:39:16.500Z,2.40
2023-03-16T08:41:48.356Z,2.78
2023-03-16T08:44:30.328Z,2.60
2023-03-16T08:46:59.530Z,2.60
2023-03-16T08:49:27.371Z,2.40
2023-03-16T08:52:05.278Z,2.60
2023-03-16T08:54:33.669Z,3.33
2023-03-16T08:57:01.612Z,5.07
2023-03-16T08:59:31.306Z,4.97
2023-03-16T09:01:59.238Z,3.45
2023-03-16T09:04:28.285Z,2.70
2023-03-16T09:07:07.831Z,2.72
2023-03-16T09:09:37.038Z,2.55
2023-03-16T09:12:05.967Z,2.47
2023-03-16T09:14:37.151Z,2.42
2023-03-16T09:17:05.198Z,2.10
2023-03-16T09:19:50.092Z,2.70
2023-03-16T09:22:19.539Z,2.95
2023-03-16T09:24:48.493Z,2.78
2023-03-16T09:27:16.879Z,3.05
2023-03-16T09:29:46.638Z,2.75
2023-03-16T09:32:15.402Z,2.28
2023-03-16T09:34:44.717Z,2.13
2023-03-16T09:37:12.781Z,2.23
2023-03-16T09:39:40.665Z,3.03
2023-03-16T09:42:17.553Z,2.28
2023-03-16T09:44:57.354Z,2.30
2023-03-16T09:47:29.693Z,2.40
2023-03-16T09:49:59.954Z,2.80
2023-03-16T09:55:44.187Z,2.20
2023-03-16T09:58:35.339Z,2.50
2023-03-16T10:01:51.368Z,2.53
2023-03-16T10:04:46.289Z,2.28
2023-03-16T10:13:44.839Z,2.40
2023-03-16T10:16:18.449Z,1.98
2023-03-16T10:18:50.950Z,2.65
2023-03-16T10:21:23.402Z,2.13
2023-03-16T10:23:56.040Z,2.70
2023-03-16T10:26:29.712Z,2.67
2023-03-16T10:28:57.678Z,2.65
2023-03-16T10:31:25.470Z,2.90
2023-03-16T10:34:02.618Z,2.60
2023-03-16T10:36:33.625Z,3.05
2023-03-16T10:39:05.007Z,2.85
2023-03-16T10:41:35.318Z,2.42
2023-03-16T10:46:41.793Z,2.58
2023-03-16T10:49:25.309Z,2.20
2023-03-16T10:51:55.362Z,2.90
2023-03-16T10:54:30.523Z,2.88
2023-03-16T10:56:59.170Z,2.80
2023-03-16T10:59:34.397Z,3.28
2023-03-16T11:02:05.325Z,2.80
2023-03-16T11:04:35.634Z,3.10
2023-03-16T11:09:34.529Z,2.78
2023-03-16T11:12:15.361Z,2.60
2023-03-16T11:14:45.345Z,8.38
2023-03-16T11:17:17.972Z,15.88
2023-03-16T11:19:53.096Z,3.10
2023-03-16T11:22:24.239Z,3.00
2023-03-16T11:24:57.554Z,2.70
2023-03-16T11:27:27.859Z,2.97
2023-03-16T11:32:32.208Z,2.78
2023-03-16T11:35:04.365Z,2.55
2023-03-16T11:37:49.794Z,2.50
2023-03-16T11:40:30.409Z,2.67
2023-03-16T11:43:07.057Z,2.33
2023-03-16T11:45:43.178Z,2.63
2023-03-16T11:48:30.334Z,2.45
2023-03-16T11:51:06.353Z,3.00
2023-03-16T11:53:47.889Z,2.90
2023-03-16T11:56:25.098Z,2.22
2023-03-16T11:59:15.807Z,2.10
2023-03-16T12:02:00.981Z,2.20
2023-03-16T12:04:49.896Z,2.50
2023-03-16T12:07:50.908Z,2.08
2023-03-16T12:10:26.572Z,2.05
2023-03-16T12:13:10.441Z,2.65
2023-03-16T12:15:44.915Z,2.67
2023-03-16T12:18:18.190Z,2.38
2023-03-16T12:20:52.123Z,2.40
2023-03-16T12:23:27.215Z,2.33
2023-03-16T12:25:57.836Z,2.28
2023-03-16T12:28:27.691Z,2.47
2023-03-16T12:31:15.137Z,2.20
2023-03-16T12:34:07.768Z,2.28
2023-03-16T12:36:57.662Z,2.10
2023-03-16T12:39:40.903Z,2.15
2023-03-16T12:42:23.394Z,2.60
2023-03-16T12:44:57.559Z,1.83
2023-03-16T12:47:33.680Z,1.83
2023-03-16T12:50:07.311Z,2.38
2023-03-16T12:52:42.960Z,2.05
2023-03-16T12:55:17.635Z,1.95
2023-03-16T12:57:46.908Z,2.10
2023-03-16T13:00:16.511Z,2.03
2023-03-16T13:02:51.063Z,2.03
2023-03-16T13:05:29.000Z,2.53
2023-03-16T13:08:08.908Z,2.05
2023-03-16T13:10:38.721Z,2.50
2023-03-16T13:13:11.610Z,1.90
2023-03-16T13:15:40.227Z,2.58
2023-03-16T13:18:23.798Z,1.80
2023-03-16T13:20:54.941Z,1.90
2023-03-16T13:23:25.486Z,2.50
2023-03-16T13:26:05.643Z,2.50
2023-03-16T13:28:36.639Z,2.10
2023-03-16T13:31:06.193Z,2.13
2023-03-16T13:33:36.937Z,2.30
2023-03-16T13:36:07.271Z,2.10
2023-03-16T13:41:10.308Z,2.70
2023-03-16T13:43:43.774Z,2.50
2023-03-16T13:46:15.887Z,2.00
2023-03-16T13:48:44.049Z,2.13
2023-03-16T13:51:17.636Z,2.55
2023-03-16T13:53:45.996Z,2.17
2023-03-16T13:56:17.190Z,2.10
2023-03-16T13:58:48.417Z,2.10
2023-03-16T14:01:26.051Z,2.10
2023-03-16T14:03:56.468Z,3.47
2023-03-16T14:06:26.730Z,3.65
2023-03-16T14:11:28.899Z,2.75
2023-03-16T14:13:58.268Z,2.35
2023-03-16T14:16:29.690Z,2.00
2023-03-16T14:19:05.099Z,2.45
2023-03-16T14:21:35.293Z,2.50
2023-03-16T14:24:05.696Z,3.15
2023-03-16T14:26:43.199Z,3.72
2023-03-16T14:29:21.290Z,3.75
2023-03-16T14:31:49.683Z,6.57
2023-03-16T14:34:23.700Z,11.45
2023-03-16T14:36:51.599Z,5.60
2023-03-16T14:39:22.484Z,3.40
2023-03-16T14:41:53.509Z,4.68
2023-03-16T14:44:24.121Z,4.05
2023-03-16T14:46:56.407Z,2.70
2023-03-16T14:49:28.310Z,2.33
2023-03-16T14:52:00.452Z,3.13
2023-03-16T14:54:29.585Z,1.88
2023-03-16T14:57:02.121Z,1.90
2023-03-16T14:59:30.541Z,1.92
2023-03-16T15:02:00.321Z,1.58
2023-03-16T15:04:32.169Z,2.30
2023-03-16T15:07:00.195Z,2.05
2023-03-16T15:09:38.002Z,2.42
2023-03-16T15:12:15.169Z,4.07
2023-03-16T15:15:00.573Z,2.03
2023-03-16T15:17:28.420Z,1.40
2023-03-16T15:19:56.370Z,1.20
2023-03-16T15:22:29.003Z,1.30
2023-03-16T15:24:58.144Z,1.42
2023-03-16T15:27:34.690Z,1.38
2023-03-16T15:30:02.952Z,1.10
2023-03-16T15:32:30.855Z,1.35
2023-03-16T15:34:58.694Z,1.23
2023-03-16T15:37:27.826Z,1.63
2023-03-16T15:39:55.809Z,1.10
2023-03-16T15:42:25.867Z,1.30
2023-03-16T15:44:55.297Z,1.50
2023-03-16T15:47:23.236Z,1.43
2023-03-16T15:49:51.279Z,1.85
2023-03-16T15:52:32.702Z,1.30
2023-03-16T15:55:04.507Z,1.67
2023-03-16T15:57:32.669Z,1.70
2023-03-16T16:00:02.442Z,1.65
2023-03-16T16:02:33.553Z,1.90
2023-03-16T16:05:01.988Z,2.08
2023-03-16T16:07:30.019Z,1.77
2023-03-16T16:09:57.902Z,1.30
2023-03-16T16:12:27.271Z,1.70
2023-03-16T16:14:56.693Z,1.93
2023-03-16T16:17:43.819Z,2.10
2023-03-16T16:20:20.428Z,1.98
2023-03-16T16:22:48.534Z,2.65
2023-03-16T16:25:17.441Z,4.15
2023-03-16T16:27:45.796Z,3.30
2023-03-16T16:30:22.134Z,4.93
2023-03-16T16:32:52.125Z,3.60
2023-03-16T16:35:22.883Z,5.25
2023-03-16T16:37:51.759Z,4.10
2023-03-16T16:40:21.797Z,4.18
2023-03-16T16:42:51.748Z,4.05
2023-03-16T16:45:22.260Z,5.60
2023-03-16T16:47:53.201Z,4.93
2023-03-16T16:50:23.853Z,8.02
2023-03-16T16:52:52.519Z,12.15
2023-03-16T16:55:21.317Z,14.45
2023-03-16T16:57:50.399Z,4.63
2023-03-16T17:00:21.033Z,2.85
2023-03-16T17:02:53.511Z,2.15
2023-03-16T17:05:23.010Z,1.92
2023-03-16T17:07:51.973Z,2.60
2023-03-16T17:10:22.368Z,2.72
2023-03-16T17:12:51.639Z,6.38
2023-03-16T17:15:26.556Z,4.30
2023-03-16T17:18:01.927Z,3.00
2023-03-16T17:20:30.146Z,3.10
2023-03-16T17:23:00.225Z,4.18
2023-03-16T17:25:30.260Z,3.78
2023-03-16T17:27:58.865Z,3.05
2023-03-16T17:30:29.004Z,3.35
2023-03-16T17:33:03.780Z,3.85
2023-03-16T17:35:32.263Z,3.03
2023-03-16T17:38:00.264Z,3.35
2023-03-16T17:40:28.727Z,2.67
2023-03-16T17:42:56.982Z,2.90
2023-03-16T17:45:28.351Z,2.97
2023-03-16T17:47:57.934Z,3.00
2023-03-16T17:50:29.624Z,3.00
2023-03-16T17:52:57.843Z,2.45
2023-03-16T17:55:25.900Z,3.20
2023-03-16T17:57:55.318Z,3.17
2023-03-16T18:00:26.736Z,3.63
2023-03-16T18:02:56.577Z,3.22
2023-03-16T18:05:28.777Z,3.00
2023-03-16T18:08:01.018Z,2.45
2023-03-16T18:10:30.515Z,3.58
2023-03-16T18:13:01.879Z,7.10
2023-03-16T18:15:32.914Z,4.07
2023-03-16T18:18:02.137Z,3.17
2023-03-16T18:20:34.456Z,3.17
2023-03-16T18:23:04.785Z,2.58
2023-03-16T18:25:36.043Z,3.03
2023-03-16T18:28:03.952Z,4.05
2023-03-16T18:30:33.042Z,3.05
2023-03-16T18:33:03.185Z,3.30
2023-03-16T18:38:01.084Z,3.63
2023-03-16T18:40:29.162Z,3.60
2023-03-16T18:42:57.275Z,3.08
2023-03-16T18:45:28.300Z,4.07
2023-03-16T18:47:57.953Z,3.88
2023-03-16T18:50:27.931Z,5.30
2023-03-16T18:52:58.256Z,3.08
2023-03-16T18:55:28.834Z,3.85
2023-03-16T18:57:57.354Z,3.88
2023-03-16T19:00:29.105Z,3.50
2023-03-16T19:02:59.406Z,4.10
2023-03-16T19:08:01.175Z,3.45
2023-03-16T19:10:32.823Z,3.28
2023-03-16T19:13:00.665Z,3.80
2023-03-16T19:15:31.813Z,3.13
2023-03-16T19:18:00.233Z,3.13
2023-03-16T19:20:30.385Z,3.85
2023-03-16T19:23:05.188Z,3.97
2023-03-16T19:25:36.149Z,3.92
2023-03-16T19:28:05.749Z,3.50
2023-03-16T19:30:35.830Z,3.70
2023-03-16T19:33:03.877Z,3.85
2023-03-16T19:35:50.312Z,3.67
2023-03-16T19:38:20.800Z,4.05
2023-03-16T19:40:50.606Z,4.05
2023-03-16T19:43:20.006Z,3.72
2023-03-16T19:45:48.939Z,4.22
2023-03-16T19:48:20.443Z,4.32
2023-03-16T19:50:49.155Z,3.85
2023-03-16T19:53:19.513Z,3.38
2023-03-16T19:58:24.645Z,3.42
2023-03-16T20:00:52.495Z,3.65
2023-03-16T20:03:20.688Z,3.63
2023-03-16T20:05:48.591Z,3.63
2023-03-16T20:08:25.410Z,3.75
2023-03-16T20:10:57.976Z,3.55
2023-03-16T20:13:26.841Z,3.45
2023-03-16T20:15:54.757Z,3.38
2023-03-16T20:18:22.722Z,3.28
2023-03-16T20:20:51.094Z,4.32
2023-03-16T20:23:22.969Z,4.13
2023-03-16T20:25:52.146Z,3.40
2023-03-16T20:28:24.306Z,3.20
2023-03-16T20:30:52.602Z,3.33
2023-03-16T20:33:23.815Z,3.42
2023-03-16T20:35:53.687Z,3.33
2023-03-16T20:38:22.806Z,3.35
2023-03-16T20:40:53.360Z,3.30
2023-03-16T20:43:27.915Z,3.90
2023-03-16T20:45:58.150Z,4.13
2023-03-16T20:50:55.055Z,3.38
2023-03-16T20:53:23.863Z,5.13
2023-03-16T20:55:53.132Z,4.40
2023-03-16T20:58:24.450Z,4.32
2023-03-16T21:00:57.514Z,3.65
2023-03-16T21:03:28.401Z,3.85
2023-03-16T21:05:59.966Z,3.88
2023-03-16T21:08:28.294Z,5.15
2023-03-16T21:10:57.136Z,5.10
2023-03-16T21:13:31.076Z,5.30
2023-03-16T21:16:02.624Z,4.32
2023-03-16T21:18:31.309Z,5.40
2023-03-16T21:20:59.412Z,5.63
2023-03-16T21:23:27.368Z,3.83
2023-03-16T21:25:57.485Z,3.92
2023-03-16T21:28:27.742Z,4.20
2023-03-16T21:33:31.042Z,3.58
2023-03-16T21:36:00.008Z,4.07
2023-03-16T21:38:28.917Z,4.13
2023-03-16T21:40:57.380Z,4.70
2023-03-16T21:43:26.111Z,4.07
2023-03-16T21:45:55.126Z,4.18
2023-03-16T21:48:25.183Z,4.00
2023-03-16T21:50:54.921Z,4.47
2023-03-16T21:53:25.694Z,4.00
2023-03-16T21:55:54.941Z,3.67
2023-03-16T21:58:23.928Z,4.50
2023-03-16T22:00:54.158Z,4.95
2023-03-16T22:06:02.507Z,4.60
2023-03-16T22:08:32.699Z,3.43
2023-03-16T22:11:01.494Z,2.75
2023-03-16T22:13:29.577Z,3.83
2023-03-16T22:15:59.336Z,3.70
2023-03-16T22:18:30.364Z,3.40
2023-03-16T22:21:00.605Z,3.58
2023-03-16T22:26:00.187Z,3.75
2023-03-16T22:28:29.054Z,3.00
2023-03-16T22:30:59.562Z,3.38
2023-03-16T22:33:30.891Z,3.22
2023-03-16T22:36:04.935Z,4.28
2023-03-16T22:38:34.254Z,3.45
2023-03-16T22:41:02.229Z,3.30
2023-03-16T22:43:32.933Z,3.30
2023-03-16T22:46:00.996Z,3.70
2023-03-16T22:48:30.803Z,3.45
2023-03-16T22:51:03.823Z,3.97
2023-03-16T22:53:38.742Z,3.67
2023-03-16T22:56:07.547Z,4.25
2023-03-16T22:58:37.689Z,3.42
2023-03-16T23:01:17.125Z,3.55
2023-03-16T23:03:45.907Z,3.22
2023-03-16T23:06:18.173Z,3.92
2023-03-16T23:08:47.948Z,3.80
2023-03-16T23:11:18.856Z,3.58
2023-03-16T23:13:47.038Z,3.92
2023-03-16T23:16:20.987Z,4.30
2023-03-16T23:18:49.969Z,3.95
2023-03-16T23:21:20.650Z,4.82
2023-03-16T23:24:02.746Z,4.03
2023-03-16T23:26:32.747Z,4.07
2023-03-16T23:29:00.804Z,3.88
2023-03-16T23:31:28.717Z,3.80
2023-03-16T23:33:56.613Z,3.88
2023-03-16T23:36:25.971Z,5.05
2023-03-16T23:38:55.371Z,4.20
2023-03-16T23:41:25.389Z,4.40
2023-03-16T23:43:54.102Z,4.38
2023-03-16T23:46:24.477Z,4.90
2023-03-16T23:48:54.427Z,4.47
2023-03-16T23:51:25.739Z,4.60
2023-03-16T23:53:55.009Z,5.03
2023-03-16T23:56:23.150Z,4.28
2023-03-16T23:58:51.757Z,6.35
